createdAt,value
2018-12-20T00:03:23.872Z,22.40
2018-12-20T00:05:52.250Z,22.53
2018-12-20T00:08:20.591Z,21.23
2018-12-20T00:10:48.941Z,21.23
2018-12-20T00:13:17.393Z,21.60
2018-12-20T00:15:45.834Z,23.83
2018-12-20T00:18:14.234Z,23.57
2018-12-20T00:20:42.558Z,23.67
2018-12-20T00:23:11.047Z,22.20
2018-12-20T00:25:39.448Z,23.13
2018-12-20T00:28:07.897Z,24.00
2018-12-20T00:30:36.246Z,22.93
2018-12-20T00:33:04.629Z,22.67
2018-12-20T00:35:33.130Z,23.03
2018-12-20T00:38:01.663Z,22.63
2018-12-20T00:40:30.017Z,22.03
2018-12-20T00:42:58.503Z,23.50
2018-12-20T00:45:26.875Z,23.20
2018-12-20T00:47:55.272Z,23.40
2018-12-20T00:50:23.871Z,23.67
2018-12-20T00:52:52.343Z,25.43
2018-12-20T00:55:20.727Z,23.80
2018-12-20T00:57:49.208Z,24.10
2018-12-20T01:00:19.174Z,24.27
2018-12-20T01:02:55.051Z,25.10
2018-12-20T01:05:18.148Z,23.60
2018-12-20T01:07:46.588Z,25.10
2018-12-20T01:10:15.059Z,24.67
2018-12-20T01:12:43.516Z,25.37
2018-12-20T01:15:12.098Z,24.77
2018-12-20T01:17:40.602Z,23.13
2018-12-20T01:20:09.789Z,24.40
2018-12-20T01:22:38.193Z,25.00
2018-12-20T01:25:06.688Z,26.10
2018-12-20T01:27:35.178Z,25.43
2018-12-20T01:30:04.313Z,27.13
2018-12-20T01:32:32.741Z,26.33
2018-12-20T01:35:01.216Z,25.17
2018-12-20T01:37:29.738Z,25.70
2018-12-20T01:39:59.528Z,26.37
2018-12-20T01:42:28.155Z,26.10
2018-12-20T01:44:56.680Z,26.20
2018-12-20T01:47:26.589Z,28.13
2018-12-20T01:49:54.917Z,26.63
2018-12-20T01:52:23.375Z,26.63
2018-12-20T01:54:52.002Z,24.97
2018-12-20T01:57:20.882Z,26.50
2018-12-20T01:59:49.409Z,29.33
2018-12-20T02:02:17.879Z,27.50
2018-12-20T02:04:46.380Z,27.80
2018-12-20T02:07:15.022Z,28.23
2018-12-20T02:09:43.795Z,27.93
2018-12-20T02:12:12.174Z,27.70
2018-12-20T02:14:40.596Z,26.63
2018-12-20T02:17:08.954Z,28.33
2018-12-20T02:19:37.435Z,28.63
2018-12-20T02:22:06.004Z,28.17
2018-12-20T02:24:34.522Z,28.40
2018-12-20T02:27:03.229Z,27.70
2018-12-20T02:29:31.677Z,26.60
2018-12-20T02:32:00.684Z,28.40
2018-12-20T02:34:29.333Z,28.13
2018-12-20T02:36:58.307Z,30.83
2018-12-20T02:39:26.955Z,29.37
2018-12-20T02:41:55.446Z,29.07
2018-12-20T02:44:23.775Z,29.80
2018-12-20T02:46:52.116Z,28.27
2018-12-20T02:49:21.211Z,28.93
2018-12-20T02:51:49.783Z,28.83
2018-12-20T02:54:18.258Z,28.73
2018-12-20T02:56:47.168Z,29.30
2018-12-20T02:59:17.036Z,30.17
2018-12-20T03:01:45.840Z,28.60
2018-12-20T03:04:14.466Z,29.63
2018-12-20T03:06:42.810Z,30.30
2018-12-20T03:09:11.268Z,30.97
2018-12-20T03:11:39.693Z,29.73
2018-12-20T03:14:08.122Z,31.50
2018-12-20T03:16:36.580Z,31.37
2018-12-20T03:19:05.115Z,30.23
2018-12-20T03:21:33.705Z,30.60
2018-12-20T03:24:03.605Z,29.17
2018-12-20T03:26:32.044Z,33.37
2018-12-20T03:29:00.513Z,30.77
2018-12-20T03:31:29.078Z,32.10
2018-12-20T03:33:57.624Z,32.00
2018-12-20T03:36:26.009Z,30.87
2018-12-20T03:38:54.373Z,32.30
2018-12-20T03:41:22.842Z,32.43
2018-12-20T03:43:51.299Z,31.53
2018-12-20T03:46:19.847Z,31.70
2018-12-20T03:48:48.408Z,30.37
2018-12-20T03:51:16.882Z,30.30
2018-12-20T03:53:45.321Z,31.27
2018-12-20T03:56:13.887Z,32.50
2018-12-20T03:58:42.549Z,30.13
2018-12-20T04:01:10.975Z,32.23
2018-12-20T04:03:39.352Z,32.93
2018-12-20T04:06:07.900Z,32.47
2018-12-20T04:08:36.498Z,34.40
2018-12-20T04:11:04.930Z,32.67
2018-12-20T04:13:33.464Z,32.60
2018-12-20T04:16:02.152Z,33.00
2018-12-20T04:18:30.594Z,33.37
2018-12-20T04:20:59.410Z,32.73
2018-12-20T04:23:27.966Z,32.67
2018-12-20T04:25:56.373Z,33.53
2018-12-20T04:28:24.816Z,34.43
2018-12-20T04:30:53.168Z,32.93
2018-12-20T04:33:21.689Z,30.37
2018-12-20T04:35:50.691Z,30.93
2018-12-20T04:38:19.231Z,32.30
2018-12-20T04:40:48.129Z,32.83
2018-12-20T04:43:16.513Z,29.80
2018-12-20T04:45:46.801Z,31.70
2018-12-20T04:48:16.270Z,34.07
2018-12-20T04:50:44.625Z,32.50
2018-12-20T04:53:13.074Z,33.80
2018-12-20T04:55:41.519Z,30.87
2018-12-20T04:58:10.070Z,31.23
2018-12-20T05:00:40.581Z,34.40
2018-12-20T05:03:09.289Z,33.17
2018-12-20T05:05:37.622Z,31.60
2018-12-20T05:08:06.043Z,32.57
2018-12-20T05:10:34.445Z,33.60
2018-12-20T05:13:02.911Z,32.10
2018-12-20T05:15:31.914Z,32.83
2018-12-20T05:18:00.337Z,31.17
2018-12-20T05:20:28.889Z,33.10
2018-12-20T05:22:57.364Z,31.87
2018-12-20T05:25:25.723Z,32.90
2018-12-20T05:27:54.235Z,31.63
2018-12-20T05:30:22.983Z,32.90
2018-12-20T05:32:53.082Z,31.57
2018-12-20T05:35:21.913Z,32.93
2018-12-20T05:37:50.853Z,33.93
2018-12-20T05:40:19.323Z,32.10
2018-12-20T05:42:59.740Z,31.60
2018-12-20T05:45:28.401Z,31.97
2018-12-20T05:47:56.836Z,33.10
2018-12-20T05:50:25.436Z,31.37
2018-12-20T05:52:53.850Z,33.90
2018-12-20T05:55:22.389Z,32.30
2018-12-20T05:57:51.001Z,32.03
2018-12-20T06:00:19.680Z,31.70
2018-12-20T06:02:48.245Z,31.57
2018-12-20T06:05:16.705Z,30.67
2018-12-20T06:07:45.196Z,33.57
2018-12-20T06:10:13.697Z,34.07
2018-12-20T06:12:42.125Z,32.87
2018-12-20T06:15:10.712Z,32.03
2018-12-20T06:17:39.205Z,31.80
2018-12-20T06:20:07.975Z,36.17
2018-12-20T06:22:36.728Z,30.90
2018-12-20T06:25:05.504Z,33.00
2018-12-20T06:27:33.919Z,36.30
2018-12-20T06:30:02.274Z,31.30
2018-12-20T06:32:30.618Z,30.67
2018-12-20T06:34:58.979Z,32.50
2018-12-20T06:37:27.347Z,32.33
2018-12-20T06:39:55.673Z,30.90
2018-12-20T06:42:24.014Z,31.07
2018-12-20T06:44:52.357Z,32.20
2018-12-20T06:47:20.688Z,30.80
2018-12-20T06:49:49.017Z,32.13
2018-12-20T06:52:17.475Z,31.40
2018-12-20T06:54:45.807Z,32.17
2018-12-20T06:57:14.132Z,30.13
2018-12-20T06:59:42.716Z,30.70
2018-12-20T07:02:11.081Z,32.07
2018-12-20T07:04:39.425Z,31.10
2018-12-20T07:07:07.794Z,33.23
2018-12-20T07:09:36.121Z,32.87
2018-12-20T07:12:04.528Z,30.70
2018-12-20T07:14:32.988Z,29.70
2018-12-20T07:17:01.321Z,31.03
2018-12-20T07:19:29.671Z,31.27
2018-12-20T07:21:58.108Z,32.60
2018-12-20T07:24:26.609Z,32.87
2018-12-20T07:26:54.956Z,33.30
2018-12-20T07:29:23.463Z,32.17
2018-12-20T07:31:51.791Z,29.70
2018-12-20T07:34:20.118Z,31.60
2018-12-20T07:36:48.617Z,32.10
2018-12-20T07:39:16.961Z,32.00
2018-12-20T07:41:45.298Z,31.23
2018-12-20T07:44:13.853Z,30.97
2018-12-20T07:46:42.191Z,30.87
2018-12-20T07:49:10.544Z,32.67
2018-12-20T07:51:39.088Z,32.60
2018-12-20T07:54:07.425Z,31.10
2018-12-20T07:56:35.876Z,33.70
2018-12-20T07:59:04.280Z,31.37
2018-12-20T08:01:32.692Z,30.90
2018-12-20T08:04:03.189Z,32.27
2018-12-20T08:06:31.718Z,32.73
2018-12-20T08:09:00.056Z,32.43
2018-12-20T08:11:28.377Z,32.40
2018-12-20T08:13:56.737Z,31.10
2018-12-20T08:16:25.076Z,34.03
2018-12-20T08:18:53.405Z,32.77
2018-12-20T08:21:21.876Z,33.00
2018-12-20T08:23:50.213Z,30.90
2018-12-20T08:26:18.549Z,29.77
2018-12-20T08:28:46.905Z,29.87
2018-12-20T08:31:15.240Z,29.80
2018-12-20T08:33:43.572Z,31.23
2018-12-20T08:36:11.929Z,29.97
2018-12-20T08:38:40.270Z,32.10
2018-12-20T08:41:09.161Z,32.30
2018-12-20T08:43:37.576Z,29.80
2018-12-20T08:46:05.981Z,31.77
2018-12-20T08:48:34.324Z,31.40
2018-12-20T08:51:02.749Z,31.17
2018-12-20T08:53:31.112Z,32.73
2018-12-20T08:55:59.480Z,30.67
2018-12-20T08:58:27.861Z,31.83
2018-12-20T09:00:56.198Z,30.77
2018-12-20T09:03:24.522Z,30.13
2018-12-20T09:05:52.894Z,31.17
2018-12-20T09:08:21.229Z,30.10
2018-12-20T09:10:49.569Z,31.43
2018-12-20T09:13:17.947Z,29.27
2018-12-20T09:15:46.393Z,29.67
2018-12-20T09:18:14.721Z,32.30
2018-12-20T09:20:43.085Z,31.10
2018-12-20T09:23:11.425Z,31.30
2018-12-20T09:25:39.760Z,27.67
2018-12-20T09:28:08.326Z,30.73
2018-12-20T09:30:36.672Z,28.80
2018-12-20T09:33:05.567Z,29.17
2018-12-20T09:35:34.086Z,29.17
2018-12-20T09:38:02.415Z,30.20
2018-12-20T09:40:30.752Z,29.67
2018-12-20T09:42:59.163Z,29.37
2018-12-20T09:45:27.496Z,30.40
2018-12-20T09:50:42.896Z,28.00
2018-12-20T09:53:11.237Z,29.10
2018-12-20T09:55:39.570Z,28.70
2018-12-20T09:58:08.048Z,28.50
2018-12-20T10:00:36.373Z,28.00
2018-12-20T10:03:04.708Z,28.83
2018-12-20T10:05:33.173Z,27.90
2018-12-20T10:08:01.511Z,27.60
2018-12-20T10:10:29.858Z,29.03
2018-12-20T10:12:58.209Z,28.47
2018-12-20T10:15:26.554Z,29.30
2018-12-20T10:17:54.926Z,26.97
2018-12-20T10:20:23.556Z,28.13
2018-12-20T10:22:51.902Z,29.40
2018-12-20T10:25:20.253Z,28.47
2018-12-20T10:27:48.623Z,28.67
2018-12-20T10:30:16.959Z,28.10
2018-12-20T10:32:45.309Z,26.73
2018-12-20T10:35:13.746Z,27.43
2018-12-20T10:37:42.090Z,27.87
2018-12-20T10:40:10.433Z,29.67
2018-12-20T10:42:39.054Z,28.17
2018-12-20T10:45:07.539Z,26.97
2018-12-20T10:47:35.873Z,26.13
2018-12-20T10:50:05.979Z,27.57
2018-12-20T10:52:34.338Z,27.20
2018-12-20T10:55:02.672Z,28.87
2018-12-20T10:57:31.172Z,27.67
2018-12-20T10:59:59.508Z,28.40
2018-12-20T11:02:33.621Z,28.33
2018-12-20T11:05:02.333Z,27.93
2018-12-20T11:07:36.215Z,28.07
2018-12-20T11:10:12.131Z,27.03
2018-12-20T11:12:45.984Z,27.43
2018-12-20T11:15:14.323Z,28.97
2018-12-20T11:17:42.664Z,29.70
2018-12-20T11:20:11.161Z,29.87
2018-12-20T11:22:39.501Z,29.23
2018-12-20T11:25:07.868Z,29.70
2018-12-20T11:27:36.384Z,29.77
2018-12-20T11:30:07.282Z,30.30
2018-12-20T11:32:35.633Z,28.40
2018-12-20T11:35:05.293Z,30.70
2018-12-20T11:37:33.668Z,30.90
2018-12-20T11:40:02.276Z,29.97
2018-12-20T11:42:30.637Z,27.83
2018-12-20T11:44:58.982Z,27.23
2018-12-20T11:47:27.592Z,27.77
2018-12-20T11:49:56.030Z,30.40
2018-12-20T11:52:24.433Z,31.50
2018-12-20T11:54:54.247Z,29.93
2018-12-20T11:57:22.871Z,29.33
2018-12-20T11:59:51.270Z,29.33
2018-12-20T12:02:24.457Z,27.77
2018-12-20T12:04:50.182Z,28.77
2018-12-20T12:07:18.511Z,27.80
2018-12-20T12:09:46.836Z,27.37
2018-12-20T12:12:15.562Z,27.00
2018-12-20T12:14:44.430Z,26.00
2018-12-20T12:17:12.835Z,27.20
2018-12-20T12:19:41.253Z,26.00
2018-12-20T12:22:09.660Z,25.47
2018-12-20T12:24:37.989Z,24.93
2018-12-20T12:27:06.605Z,23.47
2018-12-20T12:29:34.947Z,24.37
2018-12-20T12:32:03.292Z,23.87
2018-12-20T12:34:31.774Z,24.67
2018-12-20T12:37:00.109Z,23.40
2018-12-20T12:39:28.455Z,25.43
2018-12-20T12:41:56.805Z,24.00
2018-12-20T12:44:25.132Z,24.40
2018-12-20T12:46:53.592Z,24.70
2018-12-20T12:49:24.075Z,22.90
2018-12-20T12:51:53.162Z,23.80
2018-12-20T12:54:21.898Z,24.30
2018-12-20T12:56:50.250Z,22.87
2018-12-20T12:59:18.576Z,23.97
2018-12-20T13:01:46.932Z,23.57
2018-12-20T13:04:15.282Z,22.20
2018-12-20T13:06:43.811Z,23.10
2018-12-20T13:09:12.441Z,22.70
2018-12-20T13:11:40.898Z,22.87
2018-12-20T13:14:09.309Z,21.70
2018-12-20T13:16:37.721Z,22.63
2018-12-20T13:19:06.088Z,22.67
2018-12-20T13:21:34.421Z,21.87
2018-12-20T13:24:02.771Z,22.80
2018-12-20T13:26:31.237Z,23.27
2018-12-20T13:28:59.580Z,20.90
2018-12-20T13:31:27.918Z,22.60
2018-12-20T13:33:56.415Z,22.40
2018-12-20T13:36:24.761Z,22.80
2018-12-20T13:38:53.093Z,23.17
2018-12-20T13:41:21.477Z,22.60
2018-12-20T13:43:49.829Z,24.67
2018-12-20T13:46:18.169Z,24.90
2018-12-20T13:48:46.650Z,27.77
2018-12-20T13:51:15.064Z,25.70
2018-12-20T13:53:43.401Z,27.50
2018-12-20T13:56:11.753Z,29.07
2018-12-20T13:58:40.089Z,27.70
2018-12-20T14:01:08.425Z,26.77
2018-12-20T14:03:36.785Z,25.00
2018-12-20T14:06:05.130Z,27.53
2018-12-20T14:08:33.461Z,26.83
2018-12-20T14:11:01.954Z,25.73
2018-12-20T14:13:30.338Z,30.07
2018-12-20T14:15:58.660Z,28.17
2018-12-20T14:18:30.823Z,32.43
2018-12-20T14:20:57.492Z,27.30
2018-12-20T14:23:25.816Z,29.10
2018-12-20T14:25:54.253Z,27.20
2018-12-20T14:28:22.657Z,27.07
2018-12-20T14:30:51.029Z,29.10
2018-12-20T14:33:19.674Z,27.10
2018-12-20T14:35:48.026Z,27.60
2018-12-20T14:38:16.466Z,28.73
2018-12-20T14:40:44.994Z,26.97
2018-12-20T14:43:13.333Z,28.30
2018-12-20T14:45:41.698Z,28.00
2018-12-20T14:48:12.186Z,27.57
2018-12-20T14:50:40.517Z,27.07
2018-12-20T14:53:08.882Z,26.10
2018-12-20T14:55:37.232Z,27.50
2018-12-20T14:58:05.570Z,26.87
2018-12-20T15:00:33.904Z,27.53
2018-12-20T15:03:02.280Z,28.20
2018-12-20T15:05:30.623Z,29.20
2018-12-20T15:07:58.965Z,31.63
2018-12-20T15:10:27.328Z,29.87
2018-12-20T15:12:55.749Z,25.67
2018-12-20T15:15:24.076Z,28.20
2018-12-20T15:17:52.444Z,28.77
2018-12-20T15:20:20.784Z,26.73
2018-12-20T15:22:49.110Z,26.77
2018-12-20T15:25:17.566Z,26.67
2018-12-20T15:27:45.909Z,27.37
2018-12-20T15:30:14.274Z,28.63
2018-12-20T15:32:42.651Z,27.77
2018-12-20T15:35:11.038Z,27.07
2018-12-20T15:37:39.424Z,27.20
2018-12-20T15:40:08.737Z,26.70
2018-12-20T15:42:37.306Z,26.93
2018-12-20T15:45:07.461Z,26.70
2018-12-20T15:47:35.817Z,26.30
2018-12-20T15:50:06.681Z,27.30
2018-12-20T15:52:35.113Z,24.90
2018-12-20T15:55:04.352Z,25.00
2018-12-20T15:57:32.693Z,28.63
2018-12-20T16:00:01.021Z,26.47
2018-12-20T16:02:29.805Z,26.33
2018-12-20T16:04:58.134Z,26.93
2018-12-20T16:07:26.520Z,25.90
2018-12-20T16:09:54.896Z,25.60
2018-12-20T16:12:23.330Z,26.03
2018-12-20T16:14:51.748Z,23.47
2018-12-20T16:17:20.370Z,24.40
2018-12-20T16:19:48.704Z,24.80
2018-12-20T16:22:17.143Z,25.03
2018-12-20T16:24:45.517Z,24.70
2018-12-20T16:27:13.859Z,26.10
2018-12-20T16:29:42.197Z,24.07
2018-12-20T16:32:10.793Z,25.83
2018-12-20T16:34:39.129Z,26.47
2018-12-20T16:37:07.456Z,25.50
2018-12-20T16:39:35.828Z,26.77
2018-12-20T16:42:04.169Z,25.17
2018-12-20T16:44:32.507Z,24.40
2018-12-20T16:47:00.864Z,25.30
2018-12-20T16:49:29.202Z,23.93
2018-12-20T16:51:57.550Z,23.73
2018-12-20T16:54:25.896Z,25.07
2018-12-20T16:56:54.269Z,23.63
2018-12-20T16:59:22.613Z,24.83
2018-12-20T17:01:51.209Z,24.00
2018-12-20T17:04:19.557Z,23.27
2018-12-20T17:06:47.901Z,23.50
2018-12-20T17:09:16.272Z,23.70
2018-12-20T17:11:44.609Z,23.77
2018-12-20T17:14:12.956Z,22.97
2018-12-20T17:16:41.616Z,23.53
2018-12-20T17:19:10.019Z,23.40
2018-12-20T17:21:38.346Z,24.90
2018-12-20T17:24:06.819Z,22.80
2018-12-20T17:26:35.163Z,24.03
2018-12-20T17:29:03.637Z,28.70
2018-12-20T17:31:32.010Z,21.50
2018-12-20T17:34:01.806Z,25.27
2018-12-20T17:36:30.406Z,24.70
2018-12-20T17:38:58.930Z,24.30
2018-12-20T17:41:27.265Z,22.00
2018-12-20T17:43:55.589Z,23.30
2018-12-20T17:46:24.180Z,22.20
2018-12-20T17:48:52.526Z,22.70
2018-12-20T17:51:20.870Z,21.63
2018-12-20T17:53:49.536Z,23.40
2018-12-20T17:56:17.868Z,22.67
2018-12-20T17:58:46.210Z,22.47
2018-12-20T18:01:14.803Z,23.97
2018-12-20T18:03:43.207Z,23.43
2018-12-20T18:06:11.585Z,23.40
2018-12-20T18:08:40.134Z,21.90
2018-12-20T18:11:08.761Z,21.10
2018-12-20T18:13:37.219Z,24.70
2018-12-20T18:16:06.667Z,23.03
2018-12-20T18:18:35.055Z,24.30
2018-12-20T18:21:05.127Z,23.77
2018-12-20T18:23:33.512Z,26.20
2018-12-20T18:26:01.858Z,26.27
2018-12-20T18:28:30.193Z,24.50
2018-12-20T18:30:58.619Z,24.80
2018-12-20T18:33:26.997Z,26.70
2018-12-20T18:35:55.409Z,25.77
2018-12-20T18:38:24.025Z,27.07
2018-12-20T18:40:52.369Z,27.17
2018-12-20T18:43:20.713Z,26.03
2018-12-20T18:45:49.151Z,24.40
2018-12-20T18:48:17.505Z,23.67
2018-12-20T18:50:45.845Z,23.30
2018-12-20T18:53:14.210Z,23.90
2018-12-20T18:55:42.559Z,22.87
2018-12-20T18:58:10.900Z,21.53
2018-12-20T19:00:39.286Z,19.57
2018-12-20T19:03:07.626Z,20.47
2018-12-20T19:05:35.957Z,19.40
2018-12-20T19:08:04.333Z,20.43
2018-12-20T19:10:32.685Z,19.83
2018-12-20T19:13:01.035Z,19.13
2018-12-20T19:15:29.498Z,17.67
2018-12-20T19:17:57.833Z,19.63
2018-12-20T19:20:26.174Z,17.33
2018-12-20T19:22:54.567Z,18.47
2018-12-20T19:25:23.193Z,19.20
2018-12-20T19:27:51.556Z,16.97
2018-12-20T19:30:20.181Z,19.23
2018-12-20T19:32:48.547Z,19.50
2018-12-20T19:35:16.909Z,17.43
2018-12-20T19:37:45.292Z,17.83
2018-12-20T19:40:13.634Z,17.47
2018-12-20T19:42:41.977Z,16.57
2018-12-20T19:45:10.333Z,16.57
2018-12-20T19:47:38.673Z,16.83
2018-12-20T19:50:08.616Z,17.17
2018-12-20T19:52:37.192Z,16.60
2018-12-20T19:55:06.417Z,16.70
2018-12-20T19:57:34.766Z,16.93
2018-12-20T20:00:05.168Z,15.50
2018-12-20T20:02:33.531Z,17.40
2018-12-20T20:05:01.871Z,15.20
2018-12-20T20:07:30.245Z,15.50
2018-12-20T20:09:58.628Z,20.57
2018-12-20T20:12:26.973Z,25.63
2018-12-20T20:14:55.515Z,30.30
2018-12-20T20:17:23.860Z,23.47
2018-12-20T20:19:59.551Z,19.10
2018-12-20T20:22:22.705Z,21.20
2018-12-20T20:24:51.101Z,18.87
2018-12-20T20:27:19.448Z,22.80
2018-12-20T20:29:47.825Z,19.50
2018-12-20T20:32:16.225Z,17.83
2018-12-20T20:34:44.577Z,19.20
2018-12-20T20:37:12.986Z,17.13
2018-12-20T20:39:41.345Z,20.77
2018-12-20T20:42:09.688Z,20.97
2018-12-20T20:44:38.051Z,18.13
2018-12-20T20:47:06.407Z,17.77
2018-12-20T20:49:34.773Z,16.77
2018-12-20T20:52:03.236Z,15.10
2018-12-20T20:54:31.601Z,16.90
2018-12-20T20:56:59.973Z,15.73
2018-12-20T20:59:28.489Z,14.67
2018-12-20T21:01:56.830Z,14.83
2018-12-20T21:04:25.187Z,15.13
2018-12-20T21:06:53.732Z,15.17
2018-12-20T21:09:22.240Z,15.00
2018-12-20T21:11:50.571Z,13.67
2018-12-20T21:14:19.032Z,13.50
2018-12-20T21:16:47.384Z,13.40
2018-12-20T21:19:15.765Z,13.87
2018-12-20T21:21:44.425Z,12.97
2018-12-20T21:24:12.798Z,12.43
2018-12-20T21:26:41.159Z,13.17
2018-12-20T21:29:09.750Z,14.13
2018-12-20T21:31:38.131Z,12.60
2018-12-20T21:34:06.480Z,12.17
2018-12-20T21:36:34.873Z,11.97
2018-12-20T21:39:04.968Z,12.33
2018-12-20T21:41:33.313Z,11.90
2018-12-20T21:44:01.696Z,11.43
2018-12-20T21:46:30.045Z,11.10
2018-12-20T21:48:58.388Z,12.20
2018-12-20T21:51:26.922Z,12.43
2018-12-20T21:53:55.274Z,11.13
2018-12-20T21:56:23.624Z,10.60
2018-12-20T21:58:51.997Z,11.30
2018-12-20T22:01:20.502Z,10.30
2018-12-20T22:03:48.838Z,10.53
2018-12-20T22:06:17.205Z,11.30
2018-12-20T22:08:45.553Z,10.77
2018-12-20T22:11:13.898Z,10.50
2018-12-20T22:13:42.274Z,10.80
2018-12-20T22:16:10.617Z,10.20
2018-12-20T22:18:38.975Z,10.30
2018-12-20T22:21:07.359Z,10.40
2018-12-20T22:23:35.704Z,10.30
2018-12-20T22:26:04.059Z,10.00
2018-12-20T22:28:32.600Z,9.80
2018-12-20T22:31:00.961Z,9.80
2018-12-20T22:33:29.305Z,9.23
2018-12-20T22:35:57.832Z,8.90
2018-12-20T22:38:26.176Z,10.70
2018-12-20T22:40:54.514Z,10.90
2018-12-20T22:43:23.179Z,10.10
2018-12-20T22:45:51.573Z,10.23
2018-12-20T22:48:19.993Z,9.43
2018-12-20T22:50:55.855Z,9.30
2018-12-20T22:53:19.051Z,10.47
2018-12-20T22:55:47.440Z,9.20
2018-12-20T22:58:15.977Z,9.60
2018-12-20T23:03:32.426Z,8.87
2018-12-20T23:06:01.448Z,8.37
2018-12-20T23:08:31.234Z,8.13
2018-12-20T23:10:59.740Z,9.23
2018-12-20T23:13:28.147Z,8.27
2018-12-20T23:15:56.573Z,8.80
2018-12-20T23:18:25.019Z,9.07
2018-12-20T23:20:53.548Z,8.70
2018-12-20T23:23:22.321Z,8.20
2018-12-20T23:25:50.700Z,8.77
2018-12-20T23:28:19.045Z,8.60
2018-12-20T23:30:47.394Z,8.27
2018-12-20T23:33:15.774Z,8.90
2018-12-20T23:35:44.126Z,7.70
2018-12-20T23:38:12.503Z,8.20
2018-12-20T23:40:41.003Z,8.43
2018-12-20T23:43:09.365Z,8.60
2018-12-20T23:45:37.733Z,7.73
2018-12-20T23:48:06.104Z,8.00
2018-12-20T23:50:34.445Z,7.80
2018-12-20T23:53:02.793Z,8.13
2018-12-20T23:55:31.179Z,7.70
2018-12-20T23:57:59.549Z,7.73
